Time;durP1;ratioP1;P1;durP2;ratioP2;P2;SDS_P1;SDS_P2;PMS_P1;PMS_P2;Temp;Humidity;BMP_temperature;BMP_pressure;BME280_temperature;BME280_humidity;BME280_pressure;Samples;Min_cycle;Max_cycle;Signal;HPM_P1;HPM_P2
2023/03/15 00:03:06;;;;;;;7.10;4.27;;;;;2.30;100768.00;;;;9705377;30;20203;-76
2023/03/15 00:08:08;;;;;;;10.50;4.80;;;;;2.30;100747.00;;;;9718626;30;20234;-77
2023/03/15 00:13:11;;;;;;;13.80;5.90;;;;;2.30;100769.00;;;;9734447;30;20210;-77
2023/03/15 00:18:14;;;;;;;14.73;5.90;;;;;2.40;100761.00;;;;9709056;30;20201;-78
2023/03/15 00:23:16;;;;;;;10.00;6.80;;;;;2.40;100773.00;;;;9697374;30;20194;-79
2023/03/15 00:28:19;;;;;;;13.83;7.20;;;;;2.50;100779.00;;;;9698010;30;20234;-78
2023/03/15 00:33:21;;;;;;;13.60;7.87;;;;;2.60;100771.00;;;;9710820;30;20226;-78
2023/03/15 00:38:23;;;;;;;13.90;7.43;;;;;2.70;100759.00;;;;9737236;30;20224;-78
2023/03/15 00:43:25;;;;;;;13.30;7.53;;;;;2.70;100759.00;;;;9753479;30;20249;-77
2023/03/15 00:48:27;;;;;;;13.50;7.03;;;;;2.70;100773.00;;;;9713997;30;20910;-77
2023/03/15 00:53:29;;;;;;;8.13;6.20;;;;;2.80;100769.00;;;;9743519;30;20690;-78
2023/03/15 00:58:31;;;;;;;14.60;7.73;;;;;2.90;100766.00;;;;9745633;30;20246;-78
2023/03/15 01:03:34;;;;;;;15.33;6.30;;;;;2.90;100770.00;;;;9713046;30;20214;-78
2023/03/15 01:08:38;;;;;;;11.73;5.47;;;;;3.00;100779.00;;;;9758810;30;20859;-77
2023/03/15 01:13:40;;;;;;;12.80;4.70;;;;;3.10;100766.00;;;;9729983;30;20217;-77
2023/03/15 01:18:42;;;;;;;10.30;4.20;;;;;3.10;100776.00;;;;9732531;30;20612;-78
2023/03/15 01:23:45;;;;;;;13.17;3.67;;;;;3.20;100786.00;;;;9728942;30;20930;-78
2023/03/15 01:28:47;;;;;;;8.20;3.87;;;;;3.20;100797.00;;;;9725798;30;20211;-78
2023/03/15 01:33:49;;;;;;;4.87;1.93;;;;;3.20;100798.00;;;;9726495;30;20213;-77
2023/03/15 01:38:53;;;;;;;3.63;1.70;;;;;3.20;100797.00;;;;9729478;30;20202;-78
2023/03/15 01:44:01;;;;;;;3.47;1.50;;;;;3.10;100789.00;;;;9732102;30;20333;-78
2023/03/15 01:49:21;;;;;;;2.43;1.13;;;;;3.00;100801.00;;;;9744223;30;20217;-78
2023/03/15 01:54:35;;;;;;;2.70;1.57;;;;;3.00;100813.00;;;;9730937;30;20225;-78
2023/03/15 01:59:42;;;;;;;2.10;1.30;;;;;3.00;100818.00;;;;9726120;30;20218;-79
2023/03/15 02:04:51;;;;;;;2.43;1.47;;;;;3.00;100811.00;;;;9716779;30;20289;-78
2023/03/15 02:10:02;;;;;;;3.90;1.60;;;;;3.00;100809.00;;;;9729839;30;20210;-78
2023/03/15 02:15:10;;;;;;;4.17;1.83;;;;;3.10;100805.00;;;;9740690;30;20206;-78
2023/03/15 02:20:12;;;;;;;6.33;2.10;;;;;3.10;100806.00;;;;9715737;30;20213;-78
2023/03/15 02:25:30;;;;;;;3.73;2.03;;;;;3.10;100813.00;;;;9728959;30;20321;-78
2023/03/15 02:30:32;;;;;;;5.70;1.87;;;;;3.10;100804.00;;;;9721761;30;20217;-78
2023/03/15 02:35:37;;;;;;;4.83;2.00;;;;;3.20;100811.00;;;;9707555;30;20239;-78
2023/03/15 02:40:39;;;;;;;8.53;2.40;;;;;3.20;100809.00;;;;9723254;30;20206;-78
2023/03/15 02:45:41;;;;;;;11.03;2.23;;;;;3.20;100821.00;;;;9704795;30;20300;-78
2023/03/15 02:50:43;;;;;;;6.97;2.20;;;;;3.30;100826.00;;;;9691941;30;20218;-78
2023/03/15 02:55:45;;;;;;;4.57;2.00;;;;;3.30;100825.00;;;;9721788;30;20738;-78
2023/03/15 03:00:48;;;;;;;6.50;2.50;;;;;3.30;100844.00;;;;9725770;30;20207;-78
2023/03/15 03:05:52;;;;;;;3.77;2.03;;;;;3.30;100856.00;;;;9711478;30;20337;-78
2023/03/15 03:10:54;;;;;;;2.70;2.00;;;;;3.30;100863.00;;;;9713329;30;20274;-78
2023/03/15 03:15:57;;;;;;;8.10;2.70;;;;;3.30;100860.00;;;;9742528;30;20214;-78
2023/03/15 03:21:06;;;;;;;5.87;2.63;;;;;3.20;100875.00;;;;9689399;30;20207;-78
2023/03/15 03:26:15;;;;;;;5.50;3.10;;;;;3.30;100886.00;;;;9735838;30;20336;-78
2023/03/15 03:31:24;;;;;;;4.83;2.67;;;;;3.30;100893.00;;;;9728044;30;20210;-78
2023/03/15 03:36:27;;;;;;;4.50;3.27;;;;;3.30;100899.00;;;;9742278;30;20716;-78
2023/03/15 03:41:29;;;;;;;7.47;3.53;;;;;3.30;100901.00;;;;9727258;30;20479;-78
2023/03/15 03:46:32;;;;;;;10.70;3.50;;;;;3.30;100906.00;;;;9720280;30;20576;-78
2023/03/15 03:51:35;;;;;;;7.60;3.83;;;;;3.40;100905.00;;;;9691632;30;20349;-78
2023/03/15 03:56:38;;;;;;;10.43;4.73;;;;;3.40;100911.00;;;;9724892;30;20252;-78
2023/03/15 04:01:41;;;;;;;12.00;5.23;;;;;3.40;100924.00;;;;9713906;30;20221;-77
2023/03/15 04:06:45;;;;;;;7.17;4.40;;;;;3.40;100931.00;;;;9742106;30;20242;-78
2023/03/15 04:11:52;;;;;;;10.07;4.73;;;;;3.40;100947.00;;;;9726424;30;20202;-78
2023/03/15 04:16:54;;;;;;;10.50;4.90;;;;;3.40;100952.00;;;;9718899;30;20651;-77
2023/03/15 04:21:57;;;;;;;13.07;6.17;;;;;3.30;100956.00;;;;9732778;30;20202;-78
2023/03/15 04:27:25;;;;;;;10.77;5.50;;;;;3.30;100965.00;;;;9705969;30;20304;-77
2023/03/15 04:32:36;;;;;;;11.57;5.53;;;;;3.20;100950.00;;;;9699101;30;20221;-78
2023/03/15 04:37:46;;;;;;;9.00;4.60;;;;;3.10;100963.00;;;;9710201;30;20214;-78
2023/03/15 04:43:11;;;;;;;7.67;4.47;;;;;2.90;100969.00;;;;9738881;30;20328;-78
2023/03/15 04:48:28;;;;;;;10.60;5.47;;;;;2.60;100964.00;;;;9737400;30;20316;-77
2023/03/15 04:54:02;;;;;;;9.30;5.03;;;;;2.40;100983.00;;;;9738816;30;20219;-77
2023/03/15 04:59:22;;;;;;;10.20;5.87;;;;;2.30;100987.00;;;;9749371;30;20718;-78
2023/03/15 05:04:42;;;;;;;7.73;5.50;;;;;2.10;100995.00;;;;9734580;30;20230;-78
2023/03/15 05:09:52;;;;;;;11.13;5.57;;;;;2.00;100998.00;;;;9717783;30;20696;-78
2023/03/15 05:15:12;;;;;;;10.23;6.80;;;;;1.90;101007.00;;;;9732790;30;20210;-78
2023/03/15 05:20:30;;;;;;;13.13;6.23;;;;;1.80;101016.00;;;;9746511;30;20224;-78
2023/03/15 05:26:05;;;;;;;8.73;6.77;;;;;1.70;101018.00;;;;9735526;30;20222;-78
2023/03/15 05:31:19;;;;;;;10.83;6.77;;;;;1.70;101031.00;;;;9734718;30;20769;-76
2023/03/15 05:36:43;;;;;;;12.40;7.00;;;;;1.50;101036.00;;;;9707351;30;20692;-77
2023/03/15 05:41:47;;;;;;;13.00;7.13;;;;;1.50;101042.00;;;;9724700;30;20870;-77
2023/03/15 05:47:19;;;;;;;15.37;8.57;;;;;1.40;101031.00;;;;9714790;30;20265;-78
2023/03/15 05:52:35;;;;;;;13.23;7.27;;;;;1.40;101040.00;;;;9732600;30;20737;-78
2023/03/15 05:57:54;;;;;;;12.57;7.47;;;;;1.40;101046.00;;;;9716158;30;20388;-78
2023/03/15 06:03:22;;;;;;;16.70;9.13;;;;;1.40;101057.00;;;;9718648;30;20220;-77
2023/03/15 06:08:35;;;;;;;12.67;8.90;;;;;1.40;101064.00;;;;9716423;30;20258;-78
2023/03/15 06:13:37;;;;;;;16.43;8.87;;;;;1.40;101070.00;;;;9722717;30;20709;-77
2023/03/15 06:18:47;;;;;;;10.87;7.67;;;;;1.50;101083.00;;;;9732066;30;20872;-78
2023/03/15 06:23:49;;;;;;;15.97;9.53;;;;;1.80;101087.00;;;;9730399;30;20246;-78
2023/03/15 06:28:52;;;;;;;16.20;10.23;;;;;2.10;101103.00;;;;9730578;30;20237;-78
2023/03/15 06:33:54;;;;;;;20.73;11.00;;;;;2.60;101101.00;;;;9696112;30;20278;-77
2023/03/15 06:38:56;;;;;;;20.53;11.90;;;;;2.90;101102.00;;;;9711854;30;20210;-78
2023/03/15 06:43:59;;;;;;;27.87;15.10;;;;;3.20;101101.00;;;;9721461;30;20281;-78
2023/03/15 06:49:02;;;;;;;26.47;13.47;;;;;3.40;101092.00;;;;9690585;30;20235;-78
2023/03/15 06:54:04;;;;;;;18.77;11.03;;;;;3.30;101108.00;;;;9705170;30;20238;-78
2023/03/15 06:59:09;;;;;;;16.90;9.53;;;;;3.30;101104.00;;;;9732680;30;20211;-78
2023/03/15 07:04:11;;;;;;;18.93;10.87;;;;;3.60;101124.00;;;;9721164;30;20214;-77
2023/03/15 07:09:13;;;;;;;24.87;10.40;;;;;3.90;101133.00;;;;9702659;30;20268;-78
2023/03/15 07:14:15;;;;;;;16.50;10.13;;;;;4.30;101129.00;;;;9709486;30;20202;-77
2023/03/15 07:19:16;;;;;;;14.93;8.87;;;;;4.70;101149.00;;;;9690410;30;20654;-78
2023/03/15 07:24:18;;;;;;;17.37;8.03;;;;;5.00;101147.00;;;;9722398;30;20260;-77
2023/03/15 07:29:22;;;;;;;13.33;7.60;;;;;5.30;101157.00;;;;9684617;30;20238;-77
2023/03/15 07:34:24;;;;;;;13.73;7.43;;;;;5.60;101159.00;;;;9712114;30;20545;-77
2023/03/15 07:39:27;;;;;;;11.23;6.90;;;;;5.60;101175.00;;;;9712201;30;20241;-78
2023/03/15 07:44:29;;;;;;;12.53;7.13;;;;;5.80;101176.00;;;;9732087;30;20891;-77
2023/03/15 07:49:33;;;;;;;10.53;6.67;;;;;6.00;101189.00;;;;9729776;30;20245;-77
2023/03/15 07:54:35;;;;;;;10.67;6.50;;;;;6.20;101193.00;;;;9725319;30;20225;-77
2023/03/15 07:59:37;;;;;;;15.87;7.67;;;;;6.40;101190.00;;;;9727688;30;20233;-77
2023/03/15 08:04:39;;;;;;;8.90;6.73;;;;;6.70;101199.00;;;;9678066;30;322028;-77
2023/03/15 08:09:42;;;;;;;9.67;5.07;;;;;7.30;101209.00;;;;9687196;30;20529;-77
2023/03/15 08:14:44;;;;;;;10.13;4.77;;;;;7.30;101221.00;;;;9716713;30;20207;-77
2023/03/15 08:19:46;;;;;;;6.27;4.67;;;;;6.90;101237.00;;;;9740896;30;20232;-77
2023/03/15 08:24:52;;;;;;;6.97;5.07;;;;;7.40;101247.00;;;;9712793;30;21150;-77
2023/03/15 08:29:54;;;;;;;7.17;4.67;;;;;7.80;101251.00;;;;9703322;30;20222;-77
2023/03/15 08:34:56;;;;;;;7.83;5.20;;;;;7.50;101258.00;;;;9728142;30;20213;-78
2023/03/15 08:40:03;;;;;;;9.20;4.93;;;;;7.00;101258.00;;;;9703571;30;20234;-78
2023/03/15 08:45:07;;;;;;;9.93;4.33;;;;;7.00;101269.00;;;;9744014;30;20230;-77
2023/03/15 08:50:14;;;;;;;10.13;5.27;;;;;8.10;101265.00;;;;9705250;30;20209;-77
2023/03/15 08:55:16;;;;;;;8.97;4.43;;;;;7.80;101269.00;;;;9706443;30;20563;-77
2023/03/15 09:00:21;;;;;;;8.07;4.43;;;;;9.10;101274.00;;;;9735959;30;20697;-77
2023/03/15 09:05:24;;;;;;;8.40;3.37;;;;;9.10;101275.00;;;;9743718;30;20275;-77
2023/03/15 09:10:26;;;;;;;5.70;3.17;;;;;9.50;101291.00;;;;9704046;30;20210;-77
2023/03/15 09:15:28;;;;;;;6.03;3.23;;;;;10.20;101281.00;;;;9706914;30;20218;-77
2023/03/15 09:20:30;;;;;;;2.50;1.80;;;;;10.00;101281.00;;;;9720060;30;20218;-77
2023/03/15 09:25:32;;;;;;;5.17;2.00;;;;;10.40;101288.00;;;;9722459;30;20240;-77
2023/03/15 09:30:37;;;;;;;4.33;2.20;;;;;11.10;101280.00;;;;9730957;30;20213;-77
2023/03/15 09:35:40;;;;;;;5.10;1.97;;;;;9.40;101300.00;;;;9721916;30;20339;-78
2023/03/15 09:40:46;;;;;;;5.53;2.00;;;;;8.00;101298.00;;;;9704182;30;20218;-78
2023/03/15 09:46:20;;;;;;;3.60;1.70;;;;;7.90;101307.00;;;;9746744;30;20237;-77
2023/03/15 09:51:40;;;;;;;5.50;2.10;;;;;9.00;101287.00;;;;9739350;30;21482;-77
2023/03/15 09:56:56;;;;;;;2.13;1.50;;;;;10.80;101293.00;;;;9709772;30;20226;-77
2023/03/15 10:02:12;;;;;;;4.93;1.93;;;;;11.90;101290.00;;;;9710029;30;21257;-77
2023/03/15 10:07:15;;;;;;;8.30;1.40;;;;;12.40;101282.00;;;;9713367;30;20238;-77
2023/03/15 10:12:25;;;;;;;3.23;1.50;;;;;12.10;101286.00;;;;9726713;30;20271;-77
2023/03/15 10:17:55;;;;;;;3.40;1.53;;;;;12.60;101291.00;;;;9709839;30;20218;-78
2023/03/15 10:23:17;;;;;;;2.13;1.87;;;;;13.20;101305.00;;;;9735732;30;20679;-78
2023/03/15 10:28:24;;;;;;;9.20;2.30;;;;;12.20;101303.00;;;;9723010;30;20257;-78
2023/03/15 10:33:32;;;;;;;3.53;1.80;;;;;12.30;101303.00;;;;9753192;30;20213;-77
2023/03/15 10:38:35;;;;;;;4.00;1.90;;;;;13.10;101314.00;;;;9748949;30;20275;-78
2023/03/15 10:43:38;;;;;;;5.90;2.13;;;;;13.90;101301.00;;;;9737849;30;20267;-77
2023/03/15 10:49:07;;;;;;;7.00;2.13;;;;;15.10;101307.00;;;;9762996;30;20236;-77
2023/03/15 10:54:20;;;;;;;2.33;1.40;;;;;15.80;101323.00;;;;9723667;30;20758;-77
2023/03/15 10:59:25;;;;;;;3.03;1.73;;;;;16.30;101317.00;;;;9729190;30;20218;-78
2023/03/15 11:04:29;;;;;;;4.57;2.00;;;;;15.50;101323.00;;;;9740268;30;20230;-78
2023/03/15 11:09:54;;;;;;;6.05;2.20;;;;;16.00;101335.00;;;;9695239;30;20237;-77
2023/03/15 11:14:59;;;;;;;3.63;1.98;;;;;16.40;101336.00;;;;9753705;30;20259;-78
2023/03/15 11:20:15;;;;;;;4.18;2.40;;;;;16.90;101358.00;;;;9735395;30;20214;-78
2023/03/15 11:25:17;;;;;;;5.07;2.40;;;;;17.00;101357.00;;;;9742778;30;20210;-78
2023/03/15 11:30:27;;;;;;;4.40;2.20;;;;;16.70;101348.00;;;;9708207;30;20221;-77
2023/03/15 11:35:39;;;;;;;3.45;2.17;;;;;16.80;101375.00;;;;9730586;30;20300;-77
2023/03/15 11:40:46;;;;;;;4.60;2.45;;;;;15.40;101356.00;;;;9712295;30;20761;-78
2023/03/15 11:45:57;;;;;;;4.85;2.28;;;;;15.60;101358.00;;;;9727083;30;20268;-77
2023/03/15 11:51:34;;;;;;;5.00;2.20;;;;;15.20;101349.00;;;;9721545;30;20213;-77
2023/03/15 11:56:42;;;;;;;4.38;2.45;;;;;14.90;101341.00;;;;9730087;30;20245;-78
2023/03/15 12:02:09;;;;;;;2.70;1.90;;;;;14.10;101341.00;;;;9741586;30;20290;-77
2023/03/15 12:07:17;;;;;;;5.10;2.00;;;;;12.70;101338.00;;;;9714743;30;20233;-77
2023/03/15 12:12:22;;;;;;;2.67;1.90;;;;;11.20;101333.00;;;;9705813;30;20210;-77
2023/03/15 12:17:27;;;;;;;4.77;2.30;;;;;11.50;101337.00;;;;9710935;30;20213;-77
2023/03/15 12:22:31;;;;;;;4.57;2.60;;;;;12.60;101315.00;;;;9741486;30;20222;-78
2023/03/15 12:27:36;;;;;;;4.20;2.33;;;;;13.30;101320.00;;;;9711640;30;20234;-78
2023/03/15 12:32:47;;;;;;;6.43;2.30;;;;;14.30;101325.00;;;;9712951;30;20246;-79
2023/03/15 12:37:52;;;;;;;2.47;2.20;;;;;15.10;101309.00;;;;9734294;30;20227;-77
2023/03/15 12:42:56;;;;;;;6.50;2.33;;;;;14.50;101317.00;;;;9736589;30;20224;-77
2023/03/15 12:47:58;;;;;;;4.88;2.00;;;;;14.60;101305.00;;;;9723591;30;20237;-76
2023/03/15 12:53:03;;;;;;;6.03;2.13;;;;;14.80;101309.00;;;;9737396;30;20731;-77
2023/03/15 12:58:10;;;;;;;6.15;2.42;;;;;14.80;101310.00;;;;9717548;30;20213;-78
2023/03/15 13:03:15;;;;;;;5.80;1.90;;;;;14.60;101310.00;;;;9729048;30;20210;-77
2023/03/15 13:08:29;;;;;;;4.50;1.97;;;;;14.10;101307.00;;;;9716285;30;20766;-77
2023/03/15 13:13:50;;;;;;;3.50;1.83;;;;;13.70;101307.00;;;;9699434;30;20210;-77
2023/03/15 13:19:14;;;;;;;3.20;2.00;;;;;12.80;101310.00;;;;9715534;30;20261;-77
2023/03/15 13:24:34;;;;;;;3.10;2.10;;;;;12.80;101300.00;;;;9729113;30;20812;-77
2023/03/15 13:29:36;;;;;;;3.63;1.70;;;;;13.10;101305.00;;;;9714718;30;20233;-77
2023/03/15 13:34:39;;;;;;;3.03;2.17;;;;;13.30;101313.00;;;;9697863;30;20218;-76
2023/03/15 13:39:52;;;;;;;5.97;1.80;;;;;13.10;101307.00;;;;9706635;30;20226;-77
2023/03/15 13:45:04;;;;;;;7.00;1.80;;;;;15.00;101302.00;;;;9727497;30;20319;-77
2023/03/15 13:50:07;;;;;;;4.93;1.80;;;;;16.70;101292.00;;;;9717518;30;20233;-77
2023/03/15 13:55:21;;;;;;;5.87;1.80;;;;;17.10;101295.00;;;;9720300;30;20213;-77
2023/03/15 14:00:25;;;;;;;6.37;2.03;;;;;14.60;101318.00;;;;9739549;30;20320;-77
2023/03/15 14:05:31;;;;;;;4.13;1.47;;;;;13.50;101323.00;;;;9699810;30;20758;-77
2023/03/15 14:10:35;;;;;;;1.80;1.33;;;;;14.20;101272.00;;;;9745675;30;20630;-77
2023/03/15 14:15:43;;;;;;;3.10;1.40;;;;;16.90;101314.00;;;;9747029;30;20210;-76
2023/03/15 14:21:06;;;;;;;2.87;1.30;;;;;14.30;101323.00;;;;9735899;30;21602;-77
2023/03/15 14:26:22;;;;;;;3.00;1.43;;;;;14.60;101311.00;;;;9707459;30;20283;-77
2023/03/15 14:31:31;;;;;;;2.33;1.17;;;;;13.60;101310.00;;;;9702451;30;20290;-77
2023/03/15 14:36:40;;;;;;;2.47;1.10;;;;;13.00;101310.00;;;;9702476;30;21404;-77
2023/03/15 14:41:43;;;;;;;3.97;1.20;;;;;13.60;101277.00;;;;9722062;30;20248;-77
2023/03/15 14:46:44;;;;;;;3.17;1.23;;;;;14.90;101267.00;;;;9708172;30;20235;-77
2023/03/15 14:51:52;;;;;;;5.43;1.17;;;;;15.00;101276.00;;;;9700562;30;20207;-77
2023/03/15 14:56:55;;;;;;;2.40;1.20;;;;;15.40;101277.00;;;;9733509;30;20245;-77
2023/03/15 15:01:58;;;;;;;2.53;0.80;;;;;14.50;101287.00;;;;9745925;30;20210;-77
2023/03/15 15:07:01;;;;;;;4.30;1.07;;;;;13.70;101282.00;;;;9706977;30;20333;-77
2023/03/15 15:12:04;;;;;;;2.93;1.10;;;;;13.70;101280.00;;;;9731099;30;20702;-77
2023/03/15 15:17:06;;;;;;;1.70;0.90;;;;;13.20;101281.00;;;;9730114;30;20260;-77
2023/03/15 15:22:09;;;;;;;1.87;0.90;;;;;12.80;101281.00;;;;9691576;30;20203;-77
2023/03/15 15:27:13;;;;;;;3.13;1.10;;;;;12.40;101286.00;;;;9742109;30;20245;-77
2023/03/15 15:32:15;;;;;;;0.70;0.70;;;;;12.00;101275.00;;;;9725268;30;20914;-77
2023/03/15 15:37:17;;;;;;;3.63;1.47;;;;;12.00;101268.00;;;;9730639;30;20212;-77
2023/03/15 15:42:19;;;;;;;3.00;1.73;;;;;12.40;101271.00;;;;9705152;30;20202;-77
2023/03/15 15:47:21;;;;;;;4.07;1.00;;;;;12.20;101261.00;;;;9744013;30;20904;-77
2023/03/15 15:52:23;;;;;;;3.07;0.97;;;;;12.00;101252.00;;;;9735292;30;20652;-77
2023/03/15 15:57:25;;;;;;;2.10;0.90;;;;;11.80;101259.00;;;;9695681;30;20202;-76
2023/03/15 16:02:27;;;;;;;1.67;0.93;;;;;11.50;101248.00;;;;9679481;30;20233;-77
2023/03/15 16:07:29;;;;;;;2.07;0.90;;;;;11.20;101247.00;;;;9723958;30;20245;-77
2023/03/15 16:12:32;;;;;;;5.03;0.90;;;;;11.00;101247.00;;;;9697196;30;20559;-77
2023/03/15 16:17:35;;;;;;;1.47;0.80;;;;;10.70;101246.00;;;;9741088;30;20222;-76
2023/03/15 16:22:39;;;;;;;2.23;1.07;;;;;10.50;101251.00;;;;9716807;30;20214;-77
2023/03/15 16:27:42;;;;;;;3.67;1.10;;;;;10.20;101242.00;;;;9726419;30;20230;-77
2023/03/15 16:32:44;;;;;;;2.67;1.00;;;;;10.00;101239.00;;;;9718785;30;20804;-75
2023/03/15 16:37:46;;;;;;;2.33;0.90;;;;;9.80;101244.00;;;;9733867;30;20687;-75
2023/03/15 16:42:49;;;;;;;1.73;0.97;;;;;9.60;101242.00;;;;9734686;30;20297;-74
2023/03/15 16:47:51;;;;;;;3.90;1.10;;;;;9.40;101243.00;;;;9718573;30;20233;-74
2023/03/15 16:52:56;;;;;;;1.17;1.07;;;;;9.30;101244.00;;;;9707862;30;20678;-74
2023/03/15 16:58:22;;;;;;;2.47;1.60;;;;;9.20;101255.00;;;;9748223;30;20217;-74
2023/03/15 17:03:26;;;;;;;3.93;1.37;;;;;9.00;101260.00;;;;9734409;30;20229;-74
2023/03/15 17:08:28;;;;;;;2.13;1.40;;;;;8.90;101258.00;;;;9715821;30;20249;-75
2023/03/15 17:13:31;;;;;;;4.20;1.80;;;;;8.80;101262.00;;;;9705796;30;20218;-74
2023/03/15 17:18:33;;;;;;;5.20;2.70;;;;;8.60;101258.00;;;;9712734;30;20256;-79
2023/03/15 17:23:35;;;;;;;5.70;2.80;;;;;8.50;101253.00;;;;9698705;30;20394;-79
2023/03/15 17:28:37;;;;;;;5.60;3.63;;;;;8.30;101258.00;;;;9701835;30;20242;-78
2023/03/15 17:33:40;;;;;;;2.90;2.00;;;;;8.10;101262.00;;;;9721252;30;20399;-79
2023/03/15 17:38:42;;;;;;;3.07;2.03;;;;;7.90;101260.00;;;;9710779;30;20206;-80
2023/03/15 17:43:44;;;;;;;4.20;1.87;;;;;7.70;101266.00;;;;9724006;30;20261;-80
2023/03/15 17:48:47;;;;;;;3.20;1.40;;;;;7.60;101270.00;;;;9721368;30;20246;-79
2023/03/15 17:53:50;;;;;;;2.50;1.50;;;;;7.40;101272.00;;;;9741588;30;20250;-80
2023/03/15 17:58:53;;;;;;;2.93;1.60;;;;;7.40;101267.00;;;;9731827;30;20275;-81
2023/03/15 18:03:55;;;;;;;3.53;1.80;;;;;7.30;101274.00;;;;9708672;30;20634;-81
2023/03/15 18:08:57;;;;;;;8.57;3.23;;;;;7.30;101268.00;;;;9703586;30;20270;-81
2023/03/15 18:14:00;;;;;;;7.10;3.80;;;;;7.30;101265.00;;;;9706832;30;20305;-81
2023/03/15 18:19:02;;;;;;;43.87;6.70;;;;;7.20;101272.00;;;;9682579;30;20376;-81
2023/03/15 18:24:04;;;;;;;7.43;4.47;;;;;7.10;101279.00;;;;9714344;30;20654;-82
2023/03/15 18:29:06;;;;;;;7.80;4.57;;;;;7.00;101270.00;;;;9729857;30;20222;-81
2023/03/15 18:34:14;;;;;;;6.63;3.53;;;;;6.90;101268.00;;;;9702304;30;20244;-81
2023/03/15 18:39:16;;;;;;;6.47;2.50;;;;;6.90;101279.00;;;;9706814;30;20210;-80
2023/03/15 18:44:18;;;;;;;4.90;3.67;;;;;6.80;101274.00;;;;9704329;30;20241;-81
2023/03/15 18:49:20;;;;;;;7.50;3.80;;;;;6.80;101290.00;;;;9703484;30;20263;-82
2023/03/15 18:54:23;;;;;;;11.53;6.37;;;;;6.70;101279.00;;;;9696451;30;20233;-83
2023/03/15 18:59:25;;;;;;;11.87;6.60;;;;;6.60;101280.00;;;;9679552;30;20264;-81
2023/03/15 19:04:27;;;;;;;12.73;7.27;;;;;6.50;101280.00;;;;9712975;30;20242;-80
2023/03/15 19:09:29;;;;;;;7.70;4.27;;;;;6.50;101270.00;;;;9694805;30;20508;-80
2023/03/15 19:14:31;;;;;;;4.37;3.10;;;;;6.50;101275.00;;;;9698940;30;20232;-80
2023/03/15 19:19:33;;;;;;;7.27;4.63;;;;;6.40;101274.00;;;;9713367;30;20305;-81
2023/03/15 19:24:36;;;;;;;5.07;2.87;;;;;6.30;101267.00;;;;9682675;30;20220;-79
2023/03/15 19:29:38;;;;;;;3.60;3.17;;;;;6.30;101258.00;;;;9696194;30;20329;-79
2023/03/15 19:34:40;;;;;;;6.63;3.43;;;;;6.20;101261.00;;;;9732150;30;20222;-82
2023/03/15 19:39:42;;;;;;;6.20;4.53;;;;;6.10;101253.00;;;;9720821;30;20218;-81
2023/03/15 19:44:46;;;;;;;5.87;4.13;;;;;6.00;101255.00;;;;9718459;30;20226;-78
2023/03/15 19:49:48;;;;;;;6.10;3.20;;;;;6.00;101251.00;;;;9729891;30;20743;-78
2023/03/15 19:54:50;;;;;;;7.00;3.90;;;;;6.00;101250.00;;;;9694483;30;21125;-80
2023/03/15 19:59:52;;;;;;;5.83;3.30;;;;;6.00;101257.00;;;;9724916;30;20222;-80
2023/03/15 20:04:54;;;;;;;5.63;3.87;;;;;5.80;101255.00;;;;9726338;30;20293;-79
2023/03/15 20:09:57;;;;;;;4.93;3.70;;;;;5.70;101252.00;;;;9719531;30;20230;-79
2023/03/15 20:14:59;;;;;;;5.20;3.40;;;;;5.60;101255.00;;;;9702442;30;20214;-81
2023/03/15 20:20:10;;;;;;;5.57;3.83;;;;;5.50;101245.00;;;;9695405;30;20610;-78
2023/03/15 20:25:14;;;;;;;8.87;4.23;;;;;5.50;101254.00;;;;9736449;30;20294;-78
2023/03/15 20:30:16;;;;;;;9.60;4.43;;;;;5.40;101255.00;;;;9711157;30;20263;-78
2023/03/15 20:35:18;;;;;;;9.00;5.10;;;;;5.30;101249.00;;;;9735484;30;20230;-79
2023/03/15 20:40:21;;;;;;;8.97;5.27;;;;;5.20;101254.00;;;;9707964;30;20222;-78
2023/03/15 20:45:23;;;;;;;12.37;6.03;;;;;5.00;101255.00;;;;9713344;30;20334;-78
2023/03/15 20:50:26;;;;;;;7.07;5.17;;;;;5.00;101249.00;;;;9704387;30;20248;-77
2023/03/15 20:55:28;;;;;;;7.07;5.07;;;;;5.00;101246.00;;;;9720808;30;20697;-78
2023/03/15 21:00:30;;;;;;;7.57;5.17;;;;;5.10;101244.00;;;;9746574;30;20231;-79
2023/03/15 21:05:32;;;;;;;9.43;5.83;;;;;5.10;101241.00;;;;9740435;30;21837;-79
2023/03/15 21:10:35;;;;;;;8.67;5.47;;;;;5.10;101237.00;;;;9716272;30;20327;-79
2023/03/15 21:15:45;;;;;;;8.17;5.03;;;;;5.10;101236.00;;;;9728662;30;21402;-78
2023/03/15 21:20:57;;;;;;;6.27;4.77;;;;;5.20;101236.00;;;;9727681;30;20285;-79
2023/03/15 21:26:02;;;;;;;6.37;4.90;;;;;5.30;101224.00;;;;9707294;30;20229;-79
2023/03/15 21:31:05;;;;;;;6.40;5.00;;;;;5.40;101233.00;;;;9694128;30;20229;-78
2023/03/15 21:36:19;;;;;;;6.23;4.90;;;;;5.40;101230.00;;;;9721805;30;20219;-78
2023/03/15 21:41:21;;;;;;;9.97;4.63;;;;;5.40;101230.00;;;;9696031;30;20231;-79
2023/03/15 21:46:23;;;;;;;7.40;3.97;;;;;5.40;101233.00;;;;9700341;30;20231;-78
2023/03/15 21:51:27;;;;;;;7.33;4.57;;;;;5.40;101230.00;;;;9715074;30;20699;-78
2023/03/15 21:56:30;;;;;;;7.73;5.13;;;;;5.40;101222.00;;;;9693520;30;20207;-79
2023/03/15 22:01:32;;;;;;;8.03;4.50;;;;;5.30;101217.00;;;;9740362;30;20223;-79
2023/03/15 22:06:34;;;;;;;7.43;4.23;;;;;5.20;101216.00;;;;9699546;30;20218;-79
2023/03/15 22:11:36;;;;;;;5.93;4.93;;;;;5.20;101205.00;;;;9721299;30;20250;-78
2023/03/15 22:16:38;;;;;;;7.77;4.90;;;;;5.20;101214.00;;;;9709669;30;20217;-79
2023/03/15 22:21:41;;;;;;;8.13;4.70;;;;;5.30;101215.00;;;;9709977;30;20214;-78
2023/03/15 22:26:43;;;;;;;8.17;4.90;;;;;5.30;101212.00;;;;9696042;30;20421;-78
2023/03/15 22:31:48;;;;;;;10.53;5.03;;;;;5.30;101205.00;;;;9717527;30;20237;-81
2023/03/15 22:36:51;;;;;;;8.70;4.93;;;;;5.40;101207.00;;;;9706131;30;20982;-80
2023/03/15 22:41:53;;;;;;;6.07;4.33;;;;;5.40;101205.00;;;;9733325;30;20225;-80
2023/03/15 22:46:55;;;;;;;6.43;4.53;;;;;5.40;101195.00;;;;9736269;30;20234;-80
2023/03/15 22:51:57;;;;;;;7.87;4.13;;;;;5.50;101199.00;;;;9719709;30;20920;-80
2023/03/15 22:57:00;;;;;;;7.23;3.70;;;;;5.50;101187.00;;;;9760755;30;20206;-80
2023/03/15 23:02:03;;;;;;;7.27;4.10;;;;;5.60;101181.00;;;;9688549;30;20726;-80
2023/03/15 23:07:04;;;;;;;5.03;3.67;;;;;5.60;101178.00;;;;9719421;30;20743;-81
2023/03/15 23:12:07;;;;;;;20.30;4.60;;;;;5.60;101169.00;;;;9720551;30;20206;-80
2023/03/15 23:17:10;;;;;;;8.07;3.63;;;;;5.70;101178.00;;;;9719615;30;20672;-79
2023/03/15 23:22:12;;;;;;;5.77;3.73;;;;;5.70;101179.00;;;;9723470;30;20226;-81
2023/03/15 23:27:14;;;;;;;5.80;3.47;;;;;5.70;101174.00;;;;9739484;30;20213;-79
2023/03/15 23:32:17;;;;;;;6.00;4.20;;;;;5.70;101185.00;;;;9732944;30;20214;-80
2023/03/15 23:37:19;;;;;;;6.20;3.77;;;;;5.70;101182.00;;;;9689055;30;20246;-80
2023/03/15 23:42:24;;;;;;;6.20;3.90;;;;;5.70;101181.00;;;;9740191;30;20210;-80
2023/03/15 23:47:26;;;;;;;7.07;3.70;;;;;5.70;101173.00;;;;9705449;30;20612;-81
2023/03/15 23:52:29;;;;;;;6.07;3.60;;;;;5.60;101170.00;;;;9709987;30;20272;-80
2023/03/15 23:57:31;;;;;;;5.47;3.13;;;;;5.70;101170.00;;;;9719523;30;20241;-80
